Time;durP1;ratioP1;P1;durP2;ratioP2;P2;SDS_P1;SDS_P2;PMS_P1;PMS_P2;Temp;Humidity;BMP_temperature;BMP_pressure;BME280_temperature;BME280_humidity;BME280_pressure;Samples;Min_cycle;Max_cycle;Signal;HPM_P1;HPM_P2
2023/05/02 00:02:05;;;;;;;4.83;4.20;;;15.10;99.90;;;;;;5105010;28;20293;-70
2023/05/02 00:04:32;;;;;;;4.93;4.53;;;15.00;99.90;;;;;;5105553;28;20241;-70
2023/05/02 00:06:59;;;;;;;5.00;4.60;;;15.00;99.90;;;;;;5109365;28;20497;-70
2023/05/02 00:09:26;;;;;;;5.07;4.47;;;14.90;99.50;;;;;;5098650;28;20198;-70
2023/05/02 00:11:54;;;;;;;5.47;4.90;;;14.80;99.70;;;;;;5088501;28;20257;-70
2023/05/02 00:14:21;;;;;;;7.53;4.83;;;14.80;99.30;;;;;;5088972;28;20974;-71
2023/05/02 00:16:48;;;;;;;5.23;4.83;;;14.60;99.30;;;;;;5091557;28;20316;-71
2023/05/02 00:19:15;;;;;;;4.87;4.47;;;14.60;99.80;;;;;;5109075;28;20269;-70
2023/05/02 00:21:42;;;;;;;5.00;4.50;;;14.60;99.60;;;;;;5109335;28;20214;-70
2023/05/02 00:24:09;;;;;;;5.53;5.03;;;14.60;99.90;;;;;;5105526;28;20199;-70
2023/05/02 00:26:36;;;;;;;4.90;4.50;;;14.70;99.90;;;;;;5088557;28;20242;-70
2023/05/02 00:29:04;;;;;;;5.33;4.83;;;14.60;99.90;;;;;;5095093;27;20615;-70
2023/05/02 00:31:31;;;;;;;6.70;4.90;;;14.60;99.90;;;;;;5096454;28;20214;-70
2023/05/02 00:33:58;;;;;;;5.83;5.27;;;14.60;99.90;;;;;;5088534;28;20203;-70
2023/05/02 00:36:26;;;;;;;6.07;5.03;;;14.60;99.60;;;;;;5088384;28;20241;-71
2023/05/02 00:38:53;;;;;;;5.07;4.57;;;14.60;99.60;;;;;;5102022;27;20687;-71
2023/05/02 00:41:20;;;;;;;5.23;4.70;;;14.60;99.70;;;;;;5088447;28;20205;-70
2023/05/02 00:43:46;;;;;;;6.63;4.70;;;14.50;99.60;;;;;;5088284;28;20313;-71
2023/05/02 00:46:15;;;;;;;5.23;4.73;;;14.50;99.90;;;;;;5088175;28;20206;-71
2023/05/02 00:48:43;;;;;;;4.80;4.30;;;14.50;99.80;;;;;;5088276;28;20306;-71
2023/05/02 00:51:12;;;;;;;6.77;4.80;;;14.40;99.70;;;;;;5087835;28;20207;-71
2023/05/02 00:53:40;;;;;;;4.63;4.23;;;14.40;99.90;;;;;;5087888;28;20283;-70
2023/05/02 00:56:08;;;;;;;5.20;4.50;;;14.40;99.90;;;;;;5087941;28;20294;-70
2023/05/02 00:58:36;;;;;;;4.20;3.80;;;14.40;99.90;;;;;;5088146;28;20351;-70
2023/05/02 01:01:11;;;;;;;4.63;4.27;;;14.40;99.90;;;;;;5129175;27;20220;-71
2023/05/02 01:03:50;;;;;;;5.30;4.80;;;14.40;99.90;;;;;;5129158;27;20304;-70
2023/05/02 01:06:28;;;;;;;6.13;4.73;;;14.40;99.90;;;;;;5088052;28;20275;-70
2023/05/02 01:09:02;;;;;;;4.73;4.30;;;14.40;99.90;;;;;;5088294;28;20205;-71
2023/05/02 01:11:36;;;;;;;5.43;4.70;;;14.40;99.90;;;;;;5087403;28;20258;-71
2023/05/02 01:14:06;;;;;;;5.27;4.77;;;14.40;99.90;;;;;;5087969;28;20208;-71
2023/05/02 01:16:33;;;;;;;5.33;4.77;;;14.50;99.90;;;;;;5089579;28;20903;-70
2023/05/02 01:19:05;;;;;;;7.37;4.70;;;14.40;99.90;;;;;;5087619;28;20205;-70
2023/05/02 01:21:33;;;;;;;4.87;4.43;;;14.40;99.90;;;;;;5088031;28;20273;-70
2023/05/02 01:24:12;;;;;;;5.70;5.10;;;14.40;99.90;;;;;;5087349;28;20793;-70
2023/05/02 01:26:49;;;;;;;5.20;4.70;;;14.30;99.90;;;;;;5089003;28;20211;-70
2023/05/02 01:29:20;;;;;;;6.73;4.80;;;14.20;99.90;;;;;;5098592;27;20702;-70
2023/05/02 01:31:50;;;;;;;8.13;4.70;;;14.20;99.90;;;;;;5107735;28;20284;-70
2023/05/02 01:34:20;;;;;;;6.30;4.60;;;14.20;99.90;;;;;;5107921;27;20210;-70
2023/05/02 01:36:50;;;;;;;5.03;4.63;;;14.20;99.90;;;;;;5107906;28;20213;-70
2023/05/02 01:39:20;;;;;;;4.87;4.47;;;14.20;99.90;;;;;;5107683;28;20243;-70
2023/05/02 01:41:49;;;;;;;4.97;4.20;;;14.20;99.90;;;;;;5107258;28;20758;-69
2023/05/02 01:44:19;;;;;;;5.13;4.27;;;14.20;99.90;;;;;;5106974;28;20289;-69
2023/05/02 01:46:47;;;;;;;4.60;4.20;;;14.10;99.90;;;;;;5087447;28;20230;-69
2023/05/02 01:49:14;;;;;;;4.93;4.07;;;14.10;99.90;;;;;;5099427;28;20314;-70
2023/05/02 01:51:45;;;;;;;6.40;3.77;;;14.10;99.90;;;;;;5107558;27;20656;-70
2023/05/02 01:54:15;;;;;;;5.97;3.90;;;14.10;99.90;;;;;;5107444;28;20218;-70
2023/05/02 01:56:44;;;;;;;4.87;3.90;;;14.20;99.90;;;;;;5094475;28;20561;-70
2023/05/02 01:59:14;;;;;;;4.87;4.10;;;14.20;99.90;;;;;;5092016;27;20691;-71
2023/05/02 02:01:43;;;;;;;4.00;3.60;;;14.20;99.90;;;;;;5107467;28;20202;-70
2023/05/02 02:04:12;;;;;;;5.83;3.80;;;14.20;99.90;;;;;;5104855;28;20218;-70
2023/05/02 02:06:42;;;;;;;3.57;3.33;;;14.20;99.90;;;;;;5101861;28;20212;-70
2023/05/02 02:09:09;;;;;;;4.30;3.60;;;14.20;99.90;;;;;;5107479;28;20210;-70
2023/05/02 02:11:43;;;;;;;4.07;3.60;;;14.20;99.90;;;;;;5106785;28;20934;-69
2023/05/02 02:14:18;;;;;;;4.13;3.73;;;14.20;99.90;;;;;;5106719;28;20221;-69
2023/05/02 02:16:48;;;;;;;3.90;3.57;;;14.20;99.90;;;;;;5104017;28;20231;-70
2023/05/02 02:19:15;;;;;;;4.03;3.63;;;14.10;99.90;;;;;;5092141;28;20202;-70
2023/05/02 02:21:43;;;;;;;4.27;3.53;;;14.20;99.90;;;;;;5095170;28;20198;-70
2023/05/02 02:24:11;;;;;;;7.40;3.80;;;14.10;99.90;;;;;;5101912;28;20294;-69
2023/05/02 02:26:38;;;;;;;3.83;3.53;;;14.10;99.90;;;;;;5086117;28;20293;-70
2023/05/02 02:29:05;;;;;;;4.93;3.50;;;14.10;99.90;;;;;;5085984;28;20330;-69
2023/05/02 02:31:32;;;;;;;3.80;3.50;;;14.10;99.90;;;;;;5104912;28;20305;-69
2023/05/02 02:34:02;;;;;;;4.00;3.20;;;14.00;99.90;;;;;;5104910;28;20234;-69
2023/05/02 02:36:34;;;;;;;4.50;3.70;;;14.00;99.90;;;;;;5084676;28;20203;-69
2023/05/02 02:39:15;;;;;;;3.50;3.20;;;14.10;99.90;;;;;;5084501;28;20609;-69
2023/05/02 02:41:51;;;;;;;4.20;3.13;;;14.00;99.90;;;;;;5084465;28;20195;-70
2023/05/02 02:44:31;;;;;;;3.50;3.20;;;14.10;99.90;;;;;;5084374;28;20735;-69
2023/05/02 02:47:06;;;;;;;4.30;3.20;;;14.10;99.90;;;;;;5084827;28;20204;-70
2023/05/02 02:49:44;;;;;;;4.07;3.63;;;14.00;99.90;;;;;;5084130;28;20190;-69
2023/05/02 02:52:18;;;;;;;3.50;3.20;;;13.90;99.90;;;;;;5083380;28;20273;-69
2023/05/02 02:54:50;;;;;;;4.90;3.50;;;13.90;99.90;;;;;;5084343;28;20201;-69
2023/05/02 02:57:19;;;;;;;4.60;3.07;;;13.80;99.90;;;;;;5083867;28;20293;-73
2023/05/02 02:59:52;;;;;;;3.40;3.20;;;13.90;99.90;;;;;;5085308;28;20203;-71
2023/05/02 03:02:22;;;;;;;3.40;3.10;;;13.80;99.90;;;;;;5085083;28;20737;-71
2023/05/02 03:04:53;;;;;;;5.90;3.23;;;13.70;99.90;;;;;;5085470;28;20303;-71
2023/05/02 03:07:20;;;;;;;3.93;3.10;;;13.70;99.90;;;;;;5085615;28;20214;-71
2023/05/02 03:09:48;;;;;;;3.87;3.47;;;13.50;99.90;;;;;;5085644;28;20217;-71
2023/05/02 03:12:15;;;;;;;3.47;3.10;;;13.40;99.90;;;;;;5084955;28;20245;-71
2023/05/02 03:14:42;;;;;;;4.17;3.23;;;13.20;99.90;;;;;;5086085;28;20294;-71
2023/05/02 03:17:09;;;;;;;3.60;3.30;;;13.10;99.90;;;;;;5091347;28;20222;-71
2023/05/02 03:19:37;;;;;;;4.10;3.33;;;12.90;99.90;;;;;;5105741;28;20250;-71
2023/05/02 03:22:05;;;;;;;4.23;3.40;;;12.90;99.90;;;;;;5105601;28;20241;-71
2023/05/02 03:24:32;;;;;;;4.67;3.70;;;12.90;99.90;;;;;;5105513;28;20739;-71
2023/05/02 03:26:59;;;;;;;3.40;3.10;;;12.80;99.90;;;;;;5097548;28;20986;-71
2023/05/02 03:29:27;;;;;;;4.47;3.33;;;12.70;99.90;;;;;;5085435;28;20215;-72
2023/05/02 03:31:54;;;;;;;3.30;3.00;;;12.70;99.90;;;;;;5085089;28;20701;-71
2023/05/02 03:34:21;;;;;;;3.90;3.43;;;12.60;99.90;;;;;;5085235;28;20317;-71
2023/05/02 03:36:48;;;;;;;3.67;3.37;;;12.60;99.90;;;;;;5085060;28;20204;-71
2023/05/02 03:39:17;;;;;;;4.40;3.33;;;12.60;99.90;;;;;;5085022;28;20320;-71
2023/05/02 03:41:44;;;;;;;4.10;3.10;;;12.50;99.90;;;;;;5084746;28;20669;-71
2023/05/02 03:44:10;;;;;;;5.37;3.13;;;12.50;99.90;;;;;;5085042;28;20293;-71
2023/05/02 03:46:37;;;;;;;5.10;3.33;;;12.60;99.90;;;;;;5085374;28;20806;-71
2023/05/02 03:49:04;;;;;;;4.67;2.87;;;12.70;99.90;;;;;;5084828;28;20209;-71
2023/05/02 03:51:32;;;;;;;4.20;2.80;;;12.70;99.90;;;;;;5085303;28;20256;-72
2023/05/02 03:54:00;;;;;;;5.57;3.17;;;12.70;99.90;;;;;;5085307;28;20270;-71
2023/05/02 03:56:28;;;;;;;4.10;3.10;;;12.60;99.90;;;;;;5085151;28;20209;-71
2023/05/02 03:58:55;;;;;;;4.30;2.90;;;12.60;99.90;;;;;;5087839;28;20217;-71
2023/05/02 04:01:22;;;;;;;5.93;3.17;;;12.50;99.90;;;;;;5105273;28;20301;-71
2023/05/02 04:03:50;;;;;;;3.87;3.10;;;12.50;99.90;;;;;;5105535;28;20312;-71
2023/05/02 04:06:16;;;;;;;7.13;3.00;;;12.40;99.90;;;;;;5105413;28;20591;-71
2023/05/02 04:08:43;;;;;;;3.83;2.90;;;12.50;99.90;;;;;;5105506;28;20292;-71
2023/05/02 04:11:10;;;;;;;3.50;3.17;;;12.40;99.90;;;;;;5104859;28;20341;-71
2023/05/02 04:13:38;;;;;;;6.07;2.93;;;12.30;99.90;;;;;;5105705;28;20217;-71
2023/05/02 04:16:06;;;;;;;3.63;2.90;;;12.20;99.90;;;;;;5105211;28;20324;-71
2023/05/02 04:18:33;;;;;;;3.00;2.80;;;12.10;99.90;;;;;;5087820;28;20214;-71
2023/05/02 04:21:00;;;;;;;5.70;2.80;;;12.10;99.90;;;;;;5085367;28;20199;-71
2023/05/02 04:23:27;;;;;;;4.03;3.30;;;12.00;99.90;;;;;;5094309;28;20220;-71
2023/05/02 04:25:55;;;;;;;2.97;2.77;;;12.00;99.90;;;;;;5105230;28;20297;-71
2023/05/02 04:28:22;;;;;;;3.40;3.10;;;12.10;99.90;;;;;;5105333;28;20205;-71
2023/05/02 04:30:51;;;;;;;4.87;2.80;;;12.10;99.90;;;;;;5086828;28;20253;-71
2023/05/02 04:33:18;;;;;;;5.13;2.90;;;12.00;99.90;;;;;;5084997;28;20566;-71
2023/05/02 04:35:45;;;;;;;3.43;2.87;;;11.90;99.90;;;;;;5085165;28;20471;-71
2023/05/02 04:38:12;;;;;;;4.80;2.97;;;11.80;99.90;;;;;;5084599;28;20268;-71
2023/05/02 04:40:39;;;;;;;3.70;2.67;;;11.80;99.90;;;;;;5084610;28;20215;-71
2023/05/02 04:43:06;;;;;;;3.43;2.67;;;11.90;99.90;;;;;;5084686;28;20210;-71
2023/05/02 04:45:35;;;;;;;4.77;2.83;;;11.90;99.90;;;;;;5084987;28;20290;-71
2023/05/02 04:48:03;;;;;;;4.63;2.90;;;11.90;99.90;;;;;;5084924;28;20294;-71
2023/05/02 04:50:31;;;;;;;3.60;2.70;;;12.00;99.90;;;;;;5085136;28;20207;-71
2023/05/02 04:52:58;;;;;;;5.60;3.17;;;12.00;99.90;;;;;;5088383;28;20315;-71
2023/05/02 04:55:25;;;;;;;2.87;2.67;;;12.10;99.90;;;;;;5088381;28;20213;-71
2023/05/02 04:57:52;;;;;;;2.80;2.60;;;12.10;99.90;;;;;;5089275;28;20211;-71
2023/05/02 05:00:19;;;;;;;3.83;2.90;;;12.00;99.90;;;;;;5102379;28;20305;-71
2023/05/02 05:02:46;;;;;;;3.30;2.67;;;11.90;99.90;;;;;;5108829;28;20202;-71
2023/05/02 05:05:14;;;;;;;3.17;2.83;;;11.90;99.90;;;;;;5108501;28;20733;-71
2023/05/02 05:07:41;;;;;;;4.43;2.93;;;11.80;99.90;;;;;;5108554;27;20627;-71
2023/05/02 05:10:10;;;;;;;6.90;3.47;;;11.80;99.90;;;;;;5108253;28;20209;-71
2023/05/02 05:12:37;;;;;;;3.30;2.70;;;11.80;99.90;;;;;;5088196;28;20250;-71
2023/05/02 05:15:05;;;;;;;6.43;3.43;;;11.70;99.90;;;;;;5087709;28;20358;-71
2023/05/02 05:17:32;;;;;;;6.70;3.37;;;11.70;99.90;;;;;;5096794;28;20233;-71
2023/05/02 05:19:59;;;;;;;4.97;3.07;;;11.80;99.90;;;;;;5101319;27;20206;-71
2023/05/02 05:22:27;;;;;;;3.53;3.13;;;11.90;99.90;;;;;;5107997;28;20317;-71
2023/05/02 05:24:55;;;;;;;3.57;3.23;;;11.90;99.90;;;;;;5108133;28;20300;-71
2023/05/02 05:27:22;;;;;;;4.20;3.00;;;11.90;99.90;;;;;;5107837;28;20305;-71
2023/05/02 05:29:49;;;;;;;5.53;3.40;;;12.00;99.90;;;;;;5108313;28;20204;-71
2023/05/02 05:32:16;;;;;;;7.83;3.63;;;11.90;99.90;;;;;;5108128;28;20266;-71
2023/05/02 05:34:43;;;;;;;4.03;3.67;;;11.90;99.90;;;;;;5107924;28;20279;-71
2023/05/02 05:37:10;;;;;;;3.93;3.53;;;11.90;99.90;;;;;;5107652;28;20313;-71
2023/05/02 05:39:38;;;;;;;5.90;3.87;;;12.00;99.90;;;;;;5107990;28;20305;-71
2023/05/02 05:42:08;;;;;;;7.23;3.67;;;12.00;99.90;;;;;;5107390;28;20296;-71
2023/05/02 05:44:37;;;;;;;5.90;3.93;;;12.00;99.90;;;;;;5107674;28;20662;-71
2023/05/02 05:47:04;;;;;;;7.07;4.17;;;12.00;99.90;;;;;;5107695;28;20806;-71
2023/05/02 05:49:31;;;;;;;5.43;4.30;;;12.10;99.90;;;;;;5090985;28;20263;-71
2023/05/02 05:51:58;;;;;;;6.03;4.50;;;12.00;99.90;;;;;;5087503;28;20310;-72
2023/05/02 05:54:25;;;;;;;5.00;4.43;;;12.00;99.90;;;;;;5087017;28;20230;-71
2023/05/02 05:56:53;;;;;;;6.77;4.63;;;12.00;99.90;;;;;;5087417;28;20311;-71
2023/05/02 05:59:20;;;;;;;6.80;4.90;;;12.10;99.90;;;;;;5087163;28;20213;-71
2023/05/02 06:01:47;;;;;;;8.57;5.30;;;12.20;99.90;;;;;;5087494;28;20294;-71
2023/05/02 06:04:14;;;;;;;5.93;5.33;;;12.30;99.90;;;;;;5086191;28;20207;-71
2023/05/02 06:06:41;;;;;;;6.37;5.07;;;12.30;99.90;;;;;;5088436;28;20301;-71
2023/05/02 06:09:08;;;;;;;8.07;5.43;;;12.40;99.90;;;;;;5086891;28;21028;-71
2023/05/02 06:11:36;;;;;;;11.10;5.87;;;12.50;99.90;;;;;;5086910;28;20356;-71
2023/05/02 06:14:05;;;;;;;6.47;5.20;;;12.50;99.90;;;;;;5087297;28;20337;-71
2023/05/02 06:16:31;;;;;;;10.53;7.27;;;12.70;99.90;;;;;;5093504;28;20284;-71
2023/05/02 06:18:58;;;;;;;8.23;6.77;;;12.70;99.90;;;;;;5107381;28;20245;-71
2023/05/02 06:21:25;;;;;;;7.30;6.60;;;12.70;99.90;;;;;;5107217;28;20302;-71
2023/05/02 06:23:52;;;;;;;9.20;6.73;;;12.80;99.90;;;;;;5106787;28;20260;-71
2023/05/02 06:26:20;;;;;;;11.10;8.80;;;12.90;99.90;;;;;;5106717;28;20297;-71
2023/05/02 06:28:47;;;;;;;12.20;8.73;;;12.90;99.90;;;;;;5105594;27;20611;-71
2023/05/02 06:31:16;;;;;;;17.33;8.40;;;13.00;99.90;;;;;;5086604;28;20298;-71
2023/05/02 06:33:43;;;;;;;8.73;7.43;;;13.00;99.90;;;;;;5086239;28;20229;-71
2023/05/02 06:36:09;;;;;;;10.60;8.00;;;13.10;99.90;;;;;;5086327;28;20208;-71
2023/05/02 06:38:36;;;;;;;12.27;8.37;;;13.20;99.90;;;;;;5086625;28;20294;-71
2023/05/02 06:41:03;;;;;;;10.47;7.97;;;13.20;99.90;;;;;;5086227;28;20317;-71
2023/05/02 06:43:31;;;;;;;12.00;7.83;;;13.30;99.90;;;;;;5086782;28;20234;-71
2023/05/02 06:45:58;;;;;;;10.00;6.57;;;13.30;99.90;;;;;;5086407;28;20776;-71
2023/05/02 06:48:26;;;;;;;6.80;6.10;;;13.30;99.90;;;;;;5086329;28;20210;-71
2023/05/02 06:50:53;;;;;;;6.57;5.97;;;13.40;99.90;;;;;;5086523;28;20207;-71
2023/05/02 06:53:20;;;;;;;9.10;6.13;;;13.50;99.90;;;;;;5086357;28;20203;-71
2023/05/02 06:55:49;;;;;;;6.37;5.77;;;13.50;99.90;;;;;;5086311;28;20234;-71
2023/05/02 06:58:16;;;;;;;6.67;5.37;;;13.50;99.90;;;;;;5086275;28;20732;-71
2023/05/02 07:00:43;;;;;;;8.30;6.30;;;13.50;99.90;;;;;;5085975;28;20293;-71
2023/05/02 07:03:11;;;;;;;7.63;6.07;;;13.60;99.90;;;;;;5087452;28;20214;-71
2023/05/02 07:05:39;;;;;;;12.57;6.97;;;13.60;99.90;;;;;;5085935;28;20703;-71
2023/05/02 07:08:07;;;;;;;7.07;6.30;;;13.60;99.90;;;;;;5085511;28;20673;-71
2023/05/02 07:10:34;;;;;;;7.27;6.20;;;13.60;99.90;;;;;;5090682;27;20207;-71
2023/05/02 07:13:01;;;;;;;7.33;6.60;;;13.50;99.90;;;;;;5110024;27;20233;-71
2023/05/02 07:15:28;;;;;;;8.27;6.57;;;13.50;99.90;;;;;;5105748;28;20265;-71
2023/05/02 07:17:55;;;;;;;7.47;6.67;;;13.50;99.90;;;;;;5093684;28;20297;-71
2023/05/02 07:20:22;;;;;;;7.90;7.10;;;13.60;99.90;;;;;;5085693;28;20318;-71
2023/05/02 07:22:51;;;;;;;7.17;6.47;;;13.70;99.90;;;;;;5085556;28;20207;-71
2023/05/02 07:25:18;;;;;;;8.20;6.37;;;13.80;99.90;;;;;;5085011;28;20206;-71
2023/05/02 07:27:45;;;;;;;6.93;6.23;;;13.80;99.90;;;;;;5085337;28;20297;-71
2023/05/02 07:30:13;;;;;;;7.60;6.40;;;13.80;99.90;;;;;;5099125;28;20259;-71
2023/05/02 07:32:40;;;;;;;6.97;6.33;;;13.70;99.90;;;;;;5106114;28;20285;-71
2023/05/02 07:35:07;;;;;;;6.40;5.80;;;13.60;99.90;;;;;;5105530;28;20321;-71
2023/05/02 07:37:35;;;;;;;6.70;6.10;;;13.60;99.90;;;;;;5105892;28;20213;-71
2023/05/02 07:40:06;;;;;;;6.20;5.60;;;13.40;99.90;;;;;;5106018;28;20216;-71
2023/05/02 07:42:33;;;;;;;8.43;6.30;;;13.30;99.90;;;;;;5105906;28;20229;-71
2023/05/02 07:45:00;;;;;;;8.00;6.03;;;13.30;99.90;;;;;;5105960;28;20205;-71
2023/05/02 07:47:28;;;;;;;6.93;6.27;;;13.30;99.90;;;;;;5105720;28;20216;-71
2023/05/02 07:49:55;;;;;;;8.47;6.97;;;13.10;99.90;;;;;;5085233;28;20214;-71
2023/05/02 07:52:22;;;;;;;7.30;6.57;;;13.10;99.90;;;;;;5085726;28;20290;-71
2023/05/02 07:54:50;;;;;;;8.97;7.07;;;13.10;99.90;;;;;;5085545;28;20235;-71
2023/05/02 07:57:18;;;;;;;7.90;7.13;;;13.10;99.90;;;;;;5085591;28;20207;-71
2023/05/02 07:59:45;;;;;;;7.53;6.73;;;13.10;99.90;;;;;;5088570;28;20289;-71
2023/05/02 08:02:12;;;;;;;6.33;5.73;;;13.10;99.90;;;;;;5084970;28;20325;-72
2023/05/02 08:04:39;;;;;;;6.03;5.43;;;13.30;99.90;;;;;;5085712;28;20253;-71
2023/05/02 08:07:07;;;;;;;5.70;5.20;;;13.40;99.90;;;;;;5089922;28;20242;-71
2023/05/02 08:09:33;;;;;;;5.47;4.90;;;13.50;99.90;;;;;;5087022;28;20205;-71
2023/05/02 08:12:01;;;;;;;5.47;4.97;;;13.60;99.90;;;;;;5084605;28;20862;-71
2023/05/02 08:14:30;;;;;;;7.10;5.27;;;13.80;99.90;;;;;;5084816;28;20291;-71
2023/05/02 08:16:57;;;;;;;4.47;4.07;;;13.90;99.90;;;;;;5088783;28;20224;-71
2023/05/02 08:19:24;;;;;;;4.73;4.33;;;14.00;99.90;;;;;;5105595;28;20288;-71
2023/05/02 08:21:51;;;;;;;4.27;3.87;;;13.90;99.90;;;;;;5105247;28;20202;-71
2023/05/02 08:24:18;;;;;;;4.37;3.60;;;13.90;99.90;;;;;;5106106;28;20312;-71
2023/05/02 08:26:44;;;;;;;4.37;3.97;;;13.80;99.90;;;;;;5106955;28;20289;-71
2023/05/02 08:29:11;;;;;;;3.60;3.30;;;13.80;99.90;;;;;;5109310;27;20206;-71
2023/05/02 08:31:40;;;;;;;3.97;3.53;;;13.90;99.90;;;;;;5108712;28;20292;-71
2023/05/02 08:34:07;;;;;;;3.53;3.23;;;13.80;99.90;;;;;;5109059;28;20598;-71
2023/05/02 08:36:36;;;;;;;3.60;3.40;;;13.90;99.90;;;;;;5108744;28;20376;-70
2023/05/02 08:39:03;;;;;;;5.17;3.57;;;13.80;99.90;;;;;;5109179;28;20648;-70
2023/05/02 08:41:30;;;;;;;3.77;3.57;;;13.70;99.90;;;;;;5108964;28;20233;-71
2023/05/02 08:43:59;;;;;;;3.97;3.57;;;13.60;99.90;;;;;;5109311;28;20316;-71
2023/05/02 08:46:27;;;;;;;4.13;3.60;;;13.60;99.90;;;;;;5109045;28;20615;-72
2023/05/02 08:48:57;;;;;;;3.97;3.50;;;13.60;99.90;;;;;;5097451;28;20234;-71
2023/05/02 08:51:27;;;;;;;3.87;3.30;;;13.60;99.90;;;;;;5088387;28;20217;-70
2023/05/02 08:53:54;;;;;;;3.33;3.03;;;13.70;99.90;;;;;;5088517;28;20203;-70
2023/05/02 08:56:21;;;;;;;4.30;3.27;;;13.80;99.90;;;;;;5098566;28;20236;-70
2023/05/02 08:58:48;;;;;;;3.63;3.13;;;13.90;99.90;;;;;;5108997;27;20317;-70
2023/05/02 09:01:16;;;;;;;4.60;3.30;;;13.90;99.90;;;;;;5108989;28;20202;-71
2023/05/02 09:03:45;;;;;;;3.93;3.23;;;13.90;99.90;;;;;;5108268;27;20206;-70
2023/05/02 09:06:16;;;;;;;4.30;4.00;;;13.80;99.90;;;;;;5108440;28;20293;-70
2023/05/02 09:08:48;;;;;;;4.30;3.90;;;13.80;99.90;;;;;;5108614;28;20213;-70
2023/05/02 09:11:15;;;;;;;5.20;4.70;;;13.80;99.90;;;;;;5107935;28;20237;-71
2023/05/02 09:13:43;;;;;;;4.43;4.10;;;13.70;99.90;;;;;;5108241;28;20206;-70
2023/05/02 09:16:11;;;;;;;4.40;4.00;;;13.70;99.90;;;;;;5107930;28;20328;-70
2023/05/02 09:18:40;;;;;;;4.03;3.83;;;13.70;99.90;;;;;;5108498;28;20212;-70
2023/05/02 09:21:08;;;;;;;3.97;3.53;;;13.60;99.90;;;;;;5108188;28;20301;-70
2023/05/02 09:23:39;;;;;;;4.23;3.80;;;13.60;99.90;;;;;;5108427;28;20206;-70
2023/05/02 09:26:17;;;;;;;4.23;3.83;;;13.60;99.90;;;;;;5108030;28;20208;-70
2023/05/02 09:28:45;;;;;;;3.93;3.67;;;13.60;99.90;;;;;;5108459;28;20277;-71
2023/05/02 09:31:14;;;;;;;4.27;3.87;;;13.60;99.90;;;;;;5108111;27;20212;-70
2023/05/02 09:33:41;;;;;;;3.57;3.27;;;13.60;99.90;;;;;;5108369;28;20210;-70
2023/05/02 09:36:09;;;;;;;3.77;3.43;;;13.70;99.90;;;;;;5107770;28;20604;-71
2023/05/02 09:38:38;;;;;;;4.00;3.70;;;13.80;99.90;;;;;;5106800;28;20306;-71
2023/05/02 09:41:05;;;;;;;4.70;4.40;;;13.90;99.90;;;;;;5107760;28;20216;-70
2023/05/02 09:43:32;;;;;;;4.20;3.80;;;13.90;99.90;;;;;;5108227;28;20596;-70
2023/05/02 09:46:01;;;;;;;3.93;3.53;;;13.90;99.90;;;;;;5108216;28;20206;-70
2023/05/02 09:48:29;;;;;;;3.30;3.10;;;13.80;99.90;;;;;;5099733;28;20782;-70
2023/05/02 09:50:57;;;;;;;3.13;2.93;;;13.80;99.90;;;;;;5087650;28;20309;-70
2023/05/02 09:53:27;;;;;;;3.43;2.93;;;13.70;99.90;;;;;;5088493;28;20377;-70
2023/05/02 09:56:03;;;;;;;3.50;3.20;;;13.70;99.90;;;;;;5086657;28;20774;-70
2023/05/02 09:58:30;;;;;;;3.37;3.17;;;13.60;99.90;;;;;;5087002;28;20241;-70
2023/05/02 10:00:58;;;;;;;4.57;3.13;;;13.60;99.90;;;;;;5114206;27;20206;-70
2023/05/02 10:03:26;;;;;;;3.27;3.07;;;13.60;99.90;;;;;;5107235;28;20202;-70
2023/05/02 10:05:54;;;;;;;5.37;3.87;;;13.50;99.90;;;;;;5107690;28;20293;-70
2023/05/02 10:08:21;;;;;;;4.00;3.23;;;13.60;99.90;;;;;;5106902;28;20202;-70
2023/05/02 10:10:53;;;;;;;3.33;3.13;;;13.60;99.90;;;;;;5106508;28;20206;-72
2023/05/02 10:13:23;;;;;;;3.83;2.70;;;13.70;99.90;;;;;;5107675;28;20194;-71
2023/05/02 10:15:57;;;;;;;2.57;2.37;;;13.70;99.90;;;;;;5107831;28;20237;-70
2023/05/02 10:18:28;;;;;;;4.13;2.30;;;13.40;99.90;;;;;;5106895;28;20751;-70
2023/05/02 10:21:01;;;;;;;2.67;2.47;;;13.50;99.90;;;;;;5107325;28;20213;-70
2023/05/02 10:23:29;;;;;;;2.17;1.97;;;13.60;99.90;;;;;;5107238;28;20251;-70
2023/05/02 10:25:59;;;;;;;1.87;1.77;;;13.50;99.90;;;;;;5107422;28;20214;-70
2023/05/02 10:28:28;;;;;;;2.60;1.57;;;13.50;99.90;;;;;;5106848;27;20774;-70
2023/05/02 10:30:55;;;;;;;2.60;2.27;;;13.40;99.90;;;;;;5087812;28;20221;-71
2023/05/02 10:33:22;;;;;;;4.90;2.13;;;13.30;99.90;;;;;;5086668;28;20261;-70
2023/05/02 10:35:50;;;;;;;6.10;2.20;;;13.40;99.90;;;;;;5086381;28;20230;-70
2023/05/02 10:38:19;;;;;;;3.87;2.23;;;13.50;99.90;;;;;;5085578;28;20301;-70
2023/05/02 10:40:54;;;;;;;4.97;2.63;;;13.40;99.90;;;;;;5085954;28;20203;-71
2023/05/02 10:43:28;;;;;;;5.17;3.40;;;13.40;99.90;;;;;;5086209;28;20202;-70
2023/05/02 10:45:55;;;;;;;4.00;3.60;;;13.30;99.90;;;;;;5086501;28;20203;-70
2023/05/02 10:48:25;;;;;;;4.37;3.67;;;13.30;99.90;;;;;;5087772;28;20298;-70
2023/05/02 10:50:53;;;;;;;6.90;4.03;;;13.20;99.90;;;;;;5086212;28;20242;-70
2023/05/02 10:53:28;;;;;;;7.43;4.67;;;13.20;99.90;;;;;;5086065;28;20234;-70
2023/05/02 10:56:20;;;;;;;8.60;4.40;;;13.30;99.90;;;;;;5085900;28;20322;-70
2023/05/02 10:58:50;;;;;;;8.60;4.30;;;13.10;99.90;;;;;;5087037;28;20195;-70
2023/05/02 11:01:38;;;;;;;9.07;4.50;;;12.90;99.90;;;;;;5106170;28;20255;-70
2023/05/02 11:04:07;;;;;;;8.87;4.13;;;12.90;99.90;;;;;;5106139;28;20551;-70
2023/05/02 11:06:35;;;;;;;8.57;3.83;;;13.00;99.90;;;;;;5106415;28;20212;-71
2023/05/02 11:09:34;;;;;;;4.80;3.70;;;12.90;99.90;;;;;;5106344;28;20301;-70
2023/05/02 11:12:03;;;;;;;9.53;3.23;;;12.70;99.90;;;;;;5105761;28;20233;-70
2023/05/02 11:14:48;;;;;;;4.80;3.40;;;12.80;99.90;;;;;;5106085;27;20241;-71
2023/05/02 11:17:15;;;;;;;6.90;3.83;;;12.60;99.90;;;;;;5103701;27;20222;-70
2023/05/02 11:20:28;;;;;;;10.00;3.37;;;12.70;99.90;;;;;;5105769;27;20217;-71
2023/05/02 11:22:57;;;;;;;38.17;4.73;;;12.80;99.90;;;;;;5105962;28;20285;-70
2023/05/02 11:25:32;;;;;;;6.30;3.10;;;13.00;99.90;;;;;;5105701;28;20320;-71
2023/05/02 11:27:59;;;;;;;5.90;3.73;;;13.20;99.90;;;;;;5105936;28;20198;-71
2023/05/02 11:30:42;;;;;;;4.10;3.03;;;13.10;99.90;;;;;;5105925;28;20296;-71
2023/05/02 11:33:16;;;;;;;6.30;2.93;;;12.90;99.90;;;;;;5106296;28;20202;-71
2023/05/02 11:35:47;;;;;;;6.70;3.13;;;12.90;99.90;;;;;;5106265;28;20217;-71
2023/05/02 11:38:20;;;;;;;6.03;3.03;;;13.00;99.90;;;;;;5105651;28;20210;-71
2023/05/02 11:40:58;;;;;;;8.40;3.20;;;13.00;99.90;;;;;;5105562;28;20656;-71
2023/05/02 11:43:27;;;;;;;7.17;3.00;;;13.10;99.90;;;;;;5105007;28;20641;-71
2023/05/02 11:45:58;;;;;;;7.13;2.90;;;13.20;99.90;;;;;;5105536;28;20210;-71
2023/05/02 11:48:27;;;;;;;8.47;3.13;;;13.20;99.90;;;;;;5097703;28;20202;-71
2023/05/02 11:50:55;;;;;;;6.27;2.93;;;13.00;99.90;;;;;;5085142;28;20211;-71
2023/05/02 11:53:24;;;;;;;5.13;2.87;;;12.90;99.90;;;;;;5091887;28;20325;-71
2023/05/02 11:55:53;;;;;;;5.67;2.90;;;13.00;99.90;;;;;;5084923;28;20758;-72
2023/05/02 11:58:21;;;;;;;6.27;3.17;;;12.90;99.90;;;;;;5085296;28;20356;-71
2023/05/02 12:00:49;;;;;;;5.40;2.73;;;12.80;99.90;;;;;;5103884;28;20797;-71
2023/05/02 12:03:26;;;;;;;5.17;2.70;;;12.60;99.90;;;;;;5109893;28;20205;-71
2023/05/02 12:05:53;;;;;;;5.83;2.27;;;12.60;99.90;;;;;;5110259;28;20254;-71
2023/05/02 12:08:22;;;;;;;3.33;2.50;;;12.50;99.90;;;;;;5109438;28;20292;-71
2023/05/02 12:10:51;;;;;;;6.63;3.27;;;12.50;99.90;;;;;;5109142;28;20206;-72
2023/05/02 12:13:19;;;;;;;6.10;3.07;;;12.40;99.90;;;;;;5109591;28;20234;-71
2023/05/02 12:15:46;;;;;;;6.83;2.87;;;12.50;99.90;;;;;;5109307;28;20236;-71
2023/05/02 12:18:14;;;;;;;9.37;3.40;;;12.40;99.90;;;;;;5094447;28;20211;-71
2023/05/02 12:20:43;;;;;;;7.70;3.13;;;12.30;99.90;;;;;;5089482;28;20207;-71
2023/05/02 12:23:10;;;;;;;8.57;3.23;;;12.40;99.90;;;;;;5088625;28;20305;-71
2023/05/02 12:25:40;;;;;;;6.67;3.20;;;12.50;99.90;;;;;;5089317;28;20689;-72
2023/05/02 12:28:07;;;;;;;10.67;3.40;;;12.70;99.90;;;;;;5089051;28;20203;-73
2023/05/02 12:30:34;;;;;;;9.10;3.47;;;12.90;99.90;;;;;;5105889;28;20322;-73
2023/05/02 12:33:02;;;;;;;8.67;3.40;;;13.00;99.90;;;;;;5109121;28;20242;-72
2023/05/02 12:35:30;;;;;;;10.10;3.37;;;13.20;99.90;;;;;;5109572;28;20205;-73
2023/05/02 12:38:10;;;;;;;7.70;3.13;;;13.50;99.90;;;;;;5109364;28;20237;-73
2023/05/02 12:40:38;;;;;;;12.23;3.67;;;13.80;99.90;;;;;;5106320;28;20216;-71
2023/05/02 12:43:09;;;;;;;11.97;3.30;;;13.90;99.90;;;;;;5088722;28;20672;-71
2023/05/02 12:45:36;;;;;;;8.23;3.30;;;13.70;99.90;;;;;;5088652;28;20191;-72
2023/05/02 12:48:18;;;;;;;7.70;3.10;;;13.60;99.90;;;;;;5092123;27;20989;-71
2023/05/02 12:50:45;;;;;;;9.80;3.37;;;13.90;99.90;;;;;;5111565;27;20206;-71
2023/05/02 12:53:13;;;;;;;6.77;3.13;;;14.30;99.90;;;;;;5108499;27;20667;-71
2023/05/02 12:55:40;;;;;;;9.47;3.20;;;14.80;99.90;;;;;;5108387;28;20237;-71